createdAt,value
2023-02-28T00:00:16.000Z,3.8
2023-02-28T00:01:32.000Z,3.9
2023-02-28T00:02:49.000Z,3.4
2023-02-28T00:04:04.000Z,3.8
2023-02-28T00:05:20.000Z,3.3
2023-02-28T00:06:36.000Z,3.3
2023-02-28T00:07:53.000Z,3.7
2023-02-28T00:09:09.000Z,3.6
2023-02-28T00:10:25.000Z,3.7
2023-02-28T00:11:41.000Z,3.4
2023-02-28T00:12:58.000Z,3.7
2023-02-28T00:14:14.000Z,3.5
2023-02-28T00:15:30.000Z,3.9
2023-02-28T00:16:46.000Z,3.6
2023-02-28T00:18:02.000Z,3.8
2023-02-28T00:19:19.000Z,3.6
2023-02-28T00:20:34.000Z,3.6
2023-02-28T00:21:50.000Z,3.4
2023-02-28T00:23:06.000Z,3.9
2023-02-28T00:24:23.000Z,3.7
2023-02-28T00:25:39.000Z,3.5
2023-02-28T00:26:55.000Z,3.6
2023-02-28T00:28:11.000Z,3.8
2023-02-28T00:29:28.000Z,3.5
2023-02-28T00:30:44.000Z,3.7
2023-02-28T00:32:00.000Z,3.6
2023-02-28T00:33:16.000Z,3.4
2023-02-28T00:34:33.000Z,3.6
2023-02-28T00:35:49.000Z,3.2
2023-02-28T00:37:04.000Z,3.7
2023-02-28T00:38:20.000Z,3.7
2023-02-28T00:39:36.000Z,3.3
2023-02-28T00:40:53.000Z,3.6
2023-02-28T00:42:09.000Z,3.5
2023-02-28T00:43:25.000Z,3.9
2023-02-28T00:44:41.000Z,3.4
2023-02-28T00:45:58.000Z,3.5
2023-02-28T00:47:14.000Z,3.3
2023-02-28T00:48:30.000Z,3.6
2023-02-28T00:49:46.000Z,3.5
2023-02-28T00:51:03.000Z,3.5
2023-02-28T00:52:19.000Z,3.5
2023-02-28T00:53:34.000Z,3.3
2023-02-28T00:54:50.000Z,3.2
2023-02-28T00:56:07.000Z,3.4
2023-02-28T00:57:22.000Z,3.8
2023-02-28T00:58:37.000Z,3.3
2023-02-28T00:59:53.000Z,3.6
2023-02-28T01:01:10.000Z,3.6
2023-02-28T01:02:26.000Z,3.7
2023-02-28T01:03:42.000Z,3.4
2023-02-28T01:04:58.000Z,3.5
2023-02-28T01:06:14.000Z,3.3
2023-02-28T01:07:31.000Z,3.3
2023-02-28T01:08:47.000Z,3.4
2023-02-28T01:10:02.000Z,3.4
2023-02-28T01:11:17.000Z,3.6
2023-02-28T01:12:34.000Z,3.7
2023-02-28T01:13:50.000Z,3.2
2023-02-28T01:15:06.000Z,3.7
2023-02-28T01:16:22.000Z,3.4
2023-02-28T01:17:39.000Z,3.3
2023-02-28T01:18:55.000Z,3.8
2023-02-28T01:20:11.000Z,3.3
2023-02-28T01:21:27.000Z,3.5
2023-02-28T01:22:44.000Z,3.5
2023-02-28T01:24:00.000Z,3.6
2023-02-28T01:25:16.000Z,3.4
2023-02-28T01:26:32.000Z,3.3
2023-02-28T01:27:48.000Z,3.2
2023-02-28T01:29:04.000Z,3.8
2023-02-28T01:30:20.000Z,3.5
2023-02-28T01:31:36.000Z,2.9
2023-02-28T01:32:52.000Z,3.5
2023-02-28T01:34:09.000Z,3.1
2023-02-28T01:35:25.000Z,3.4
2023-02-28T01:36:40.000Z,3.3
2023-02-28T01:37:55.000Z,3.5
2023-02-28T01:39:11.000Z,3.5
2023-02-28T01:40:26.000Z,3.3
2023-02-28T01:41:42.000Z,3.4
2023-02-28T01:44:15.000Z,3.2
2023-02-28T01:45:31.000Z,3.3
2023-02-28T01:46:47.000Z,3.4
2023-02-28T01:48:03.000Z,3.3
2023-02-28T01:49:20.000Z,3.6
2023-02-28T01:50:36.000Z,3.3
2023-02-28T01:51:52.000Z,3.4
2023-02-28T01:53:08.000Z,3
2023-02-28T01:54:25.000Z,3.4
2023-02-28T01:55:41.000Z,3.6
2023-02-28T01:56:56.000Z,3.6
2023-02-28T01:58:12.000Z,3.1
2023-02-28T01:59:29.000Z,3.2
2023-02-28T02:00:45.000Z,3.5
2023-02-28T02:02:01.000Z,3.4
2023-02-28T02:03:17.000Z,3.5
2023-02-28T02:04:33.000Z,3.6
2023-02-28T02:05:50.000Z,3.5
2023-02-28T02:07:06.000Z,3.4
2023-02-28T02:08:22.000Z,3.2
2023-02-28T02:09:38.000Z,3.6
2023-02-28T02:10:55.000Z,3.2
2023-02-28T02:12:11.000Z,3.3
2023-02-28T02:13:26.000Z,3.2
2023-02-28T02:14:41.000Z,3
2023-02-28T02:15:58.000Z,3.4
2023-02-28T02:17:13.000Z,3.4
2023-02-28T02:18:28.000Z,3.1
2023-02-28T02:19:44.000Z,3.4
2023-02-28T02:21:01.000Z,3.2
2023-02-28T02:22:17.000Z,3.4
2023-02-28T02:23:33.000Z,3.5
2023-02-28T02:24:49.000Z,3.5
2023-02-28T02:26:06.000Z,3.6
2023-02-28T02:27:22.000Z,3.3
2023-02-28T02:28:38.000Z,3.4
2023-02-28T02:29:54.000Z,3.4
2023-02-28T02:31:10.000Z,3.5
2023-02-28T02:32:27.000Z,3.3
2023-02-28T02:33:43.000Z,4
2023-02-28T02:34:58.000Z,3.6
2023-02-28T02:36:14.000Z,3.3
2023-02-28T02:37:31.000Z,3.7
2023-02-28T02:38:47.000Z,3.5
2023-02-28T02:40:03.000Z,4.1
2023-02-28T02:41:19.000Z,4.3
2023-02-28T02:42:36.000Z,4.2
2023-02-28T02:43:52.000Z,4.3
2023-02-28T02:45:08.000Z,3.9
2023-02-28T02:46:24.000Z,3.9
2023-02-28T02:47:41.000Z,4.1
2023-02-28T02:48:57.000Z,4.1
2023-02-28T02:50:13.000Z,3.9
2023-02-28T02:51:28.000Z,4
2023-02-28T02:52:44.000Z,3.7
2023-02-28T02:54:01.000Z,3.9
2023-02-28T02:55:16.000Z,3.7
2023-02-28T02:56:31.000Z,3.7
2023-02-28T02:57:47.000Z,3.7
2023-02-28T02:59:04.000Z,3.5
2023-02-28T03:00:20.000Z,3.4
2023-02-28T03:01:35.000Z,3.4
2023-02-28T03:02:50.000Z,3.8
2023-02-28T03:04:07.000Z,3.6
2023-02-28T03:05:23.000Z,3.8
2023-02-28T03:06:39.000Z,3.7
2023-02-28T03:07:55.000Z,3.3
2023-02-28T03:09:12.000Z,3.7
2023-02-28T03:10:28.000Z,4.2
2023-02-28T03:11:44.000Z,4.6
2023-02-28T03:13:00.000Z,4.6
2023-02-28T03:14:17.000Z,4.4
2023-02-28T03:15:33.000Z,4.3
2023-02-28T03:16:49.000Z,4.2
2023-02-28T03:18:05.000Z,4.2
2023-02-28T03:19:21.000Z,4
2023-02-28T03:20:37.000Z,4
2023-02-28T03:21:53.000Z,4.3
2023-02-28T03:23:09.000Z,4.2
2023-02-28T03:24:25.000Z,4
2023-02-28T03:25:42.000Z,4
2023-02-28T03:26:58.000Z,3.9
2023-02-28T03:28:14.000Z,4.2
2023-02-28T03:29:29.000Z,4.1
2023-02-28T03:30:45.000Z,4
2023-02-28T03:32:01.000Z,4
2023-02-28T03:33:16.000Z,4.2
2023-02-28T03:34:31.000Z,3.7
2023-02-28T03:35:48.000Z,3.7
2023-02-28T03:37:04.000Z,3.8
2023-02-28T03:38:20.000Z,4.1
2023-02-28T03:39:36.000Z,4.3
2023-02-28T03:40:53.000Z,4
2023-02-28T03:42:09.000Z,4.1
2023-02-28T03:43:25.000Z,4.2
2023-02-28T03:44:41.000Z,4.1
2023-02-28T03:45:58.000Z,4
2023-02-28T03:47:14.000Z,3.9
2023-02-28T03:48:30.000Z,4.3
2023-02-28T03:49:46.000Z,4
2023-02-28T03:51:02.000Z,4.4
2023-02-28T03:52:18.000Z,4.1
2023-02-28T03:53:34.000Z,4.2
2023-02-28T03:54:50.000Z,4.2
2023-02-28T03:56:06.000Z,3.9
2023-02-28T03:57:23.000Z,4.2
2023-02-28T03:58:39.000Z,4.7
2023-02-28T03:59:54.000Z,4.1
2023-02-28T04:01:09.000Z,4.1
2023-02-28T04:02:25.000Z,4.2
2023-02-28T04:03:40.000Z,4
2023-02-28T04:04:55.000Z,4.2
2023-02-28T04:06:11.000Z,4.7
2023-02-28T04:07:28.000Z,4.6
2023-02-28T04:08:44.000Z,4.1
2023-02-28T04:10:00.000Z,3.9
2023-02-28T04:11:16.000Z,4.5
2023-02-28T04:12:33.000Z,4.2
2023-02-28T04:13:49.000Z,4.1
2023-02-28T04:15:05.000Z,4.1
2023-02-28T04:16:21.000Z,4.3
2023-02-28T04:17:38.000Z,4.2
2023-02-28T04:18:54.000Z,4.2
2023-02-28T04:20:10.000Z,4.3
2023-02-28T04:21:25.000Z,4.1
2023-02-28T04:22:42.000Z,3.8
2023-02-28T04:23:58.000Z,4.2
2023-02-28T04:25:14.000Z,4.2
2023-02-28T04:26:30.000Z,4.5
2023-02-28T04:27:46.000Z,3.9
2023-02-28T04:29:03.000Z,3.7
2023-02-28T04:30:18.000Z,4.2
2023-02-28T04:31:33.000Z,4.3
2023-02-28T04:32:48.000Z,4.1
2023-02-28T04:34:04.000Z,3.9
2023-02-28T04:35:20.000Z,4.4
2023-02-28T04:36:36.000Z,4.2
2023-02-28T04:37:52.000Z,4.4
2023-02-28T04:39:09.000Z,4.1
2023-02-28T04:40:25.000Z,4.1
2023-02-28T04:41:41.000Z,4.5
2023-02-28T04:42:57.000Z,4.1
2023-02-28T04:44:14.000Z,4.3
2023-02-28T04:45:30.000Z,4.3
2023-02-28T04:46:46.000Z,4.6
2023-02-28T04:48:02.000Z,4.4
2023-02-28T04:49:19.000Z,4.3
2023-02-28T04:50:34.000Z,4.1
2023-02-28T04:51:50.000Z,4.3
2023-02-28T04:53:06.000Z,4.6
2023-02-28T04:54:23.000Z,4.8
2023-02-28T04:55:39.000Z,5
2023-02-28T04:56:55.000Z,4.6
2023-02-28T04:58:11.000Z,4.8
2023-02-28T04:59:26.000Z,4.5
2023-02-28T05:00:42.000Z,4.5
2023-02-28T05:01:58.000Z,4.7
2023-02-28T05:03:13.000Z,4.7
2023-02-28T05:04:28.000Z,4.7
2023-02-28T05:05:45.000Z,4.4
2023-02-28T05:07:01.000Z,4.6
2023-02-28T05:08:17.000Z,4.7
2023-02-28T05:09:33.000Z,4.6
2023-02-28T05:10:50.000Z,4.6
2023-02-28T05:12:06.000Z,4.5
2023-02-28T05:13:22.000Z,4.2
2023-02-28T05:14:38.000Z,4.4
2023-02-28T05:15:55.000Z,4.3
2023-02-28T05:17:11.000Z,4.1
2023-02-28T05:18:27.000Z,4.4
2023-02-28T05:19:43.000Z,3.8
2023-02-28T05:20:59.000Z,4
2023-02-28T05:22:15.000Z,4.2
2023-02-28T05:23:31.000Z,3.9
2023-02-28T05:24:47.000Z,4.3
2023-02-28T05:26:03.000Z,3.9
2023-02-28T05:27:20.000Z,4.4
2023-02-28T05:28:36.000Z,3.9
2023-02-28T05:29:51.000Z,4.2
2023-02-28T05:31:06.000Z,4.2
2023-02-28T05:32:23.000Z,4.2
2023-02-28T05:33:38.000Z,4.1
2023-02-28T05:34:53.000Z,4.2
2023-02-28T05:36:09.000Z,4.6
2023-02-28T05:37:26.000Z,5
2023-02-28T05:38:42.000Z,4.6
2023-02-28T05:39:58.000Z,4.2
2023-02-28T05:41:14.000Z,4.4
2023-02-28T05:42:31.000Z,4.5
2023-02-28T05:43:47.000Z,4.8
2023-02-28T05:45:03.000Z,4.7
2023-02-28T05:46:19.000Z,4.5
2023-02-28T05:47:36.000Z,4.6
2023-02-28T05:48:52.000Z,5.3
2023-02-28T05:50:08.000Z,4.7
2023-02-28T05:51:23.000Z,4.9
2023-02-28T05:52:40.000Z,5.1
2023-02-28T05:53:56.000Z,4.6
2023-02-28T05:55:12.000Z,4.8
2023-02-28T05:56:28.000Z,4.9
2023-02-28T05:57:44.000Z,5.1
2023-02-28T05:59:01.000Z,4.8
2023-02-28T06:00:17.000Z,5.2
2023-02-28T06:01:33.000Z,4.5
2023-02-28T06:02:49.000Z,4.3
2023-02-28T06:04:06.000Z,4.6
2023-02-28T06:05:22.000Z,4.7
2023-02-28T06:06:38.000Z,4.4
2023-02-28T06:07:53.000Z,4.6
2023-02-28T06:09:10.000Z,4.1
2023-02-28T06:10:26.000Z,4.7
2023-02-28T06:11:42.000Z,4.4
2023-02-28T06:12:57.000Z,3.8
2023-02-28T06:14:13.000Z,4.3
2023-02-28T06:15:28.000Z,4.5
2023-02-28T06:16:43.000Z,4.4
2023-02-28T06:17:59.000Z,5
2023-02-28T06:19:16.000Z,4.6
2023-02-28T06:20:32.000Z,4.1
2023-02-28T06:21:48.000Z,4.4
2023-02-28T06:23:04.000Z,4.4
2023-02-28T06:24:21.000Z,4.4
2023-02-28T06:25:37.000Z,4.7
2023-02-28T06:26:53.000Z,4.1
2023-02-28T06:28:09.000Z,4
2023-02-28T06:29:25.000Z,4
2023-02-28T06:30:42.000Z,4.2
2023-02-28T06:31:58.000Z,4.6
2023-02-28T06:33:13.000Z,5.1
2023-02-28T06:34:29.000Z,5.1
2023-02-28T06:35:46.000Z,5.7
2023-02-28T06:37:02.000Z,7.2
2023-02-28T06:38:18.000Z,6.3
2023-02-28T06:39:34.000Z,6.8
2023-02-28T06:40:51.000Z,8.7
2023-02-28T06:42:06.000Z,8.5
2023-02-28T06:43:21.000Z,7.2
2023-02-28T06:44:36.000Z,8
2023-02-28T06:45:52.000Z,7.6
2023-02-28T06:47:08.000Z,7.3
2023-02-28T06:48:24.000Z,7.7
2023-02-28T06:49:40.000Z,6.6
2023-02-28T06:50:57.000Z,6.4
2023-02-28T06:52:13.000Z,6.5
2023-02-28T06:53:29.000Z,6.7
2023-02-28T06:54:45.000Z,6.9
2023-02-28T06:56:01.000Z,6.1
2023-02-28T06:57:18.000Z,6.1
2023-02-28T06:58:34.000Z,7
2023-02-28T06:59:50.000Z,6.1
2023-02-28T07:01:06.000Z,5.5
2023-02-28T07:02:22.000Z,5.9
2023-02-28T07:03:38.000Z,6
2023-02-28T07:04:54.000Z,5.2
2023-02-28T07:06:10.000Z,5.8
2023-02-28T07:07:27.000Z,5.4
2023-02-28T07:08:43.000Z,5.9
2023-02-28T07:09:59.000Z,6.3
2023-02-28T07:11:14.000Z,6.2
2023-02-28T07:12:30.000Z,5.7
2023-02-28T07:13:45.000Z,5.6
2023-02-28T07:15:00.000Z,6.3
2023-02-28T07:16:16.000Z,5.3
2023-02-28T07:17:33.000Z,5.3
2023-02-28T07:18:49.000Z,5.4
2023-02-28T07:20:05.000Z,6.2
2023-02-28T07:21:21.000Z,6
2023-02-28T07:22:38.000Z,10
2023-02-28T07:23:54.000Z,10
2023-02-28T07:25:10.000Z,9.3
2023-02-28T07:26:26.000Z,8.9
2023-02-28T07:27:42.000Z,8.5
2023-02-28T07:28:59.000Z,8.7
2023-02-28T07:30:15.000Z,10.3
2023-02-28T07:31:30.000Z,11
2023-02-28T07:32:46.000Z,12
2023-02-28T07:34:03.000Z,11.1
2023-02-28T07:35:19.000Z,7.7
2023-02-28T07:36:35.000Z,6.9
2023-02-28T07:37:51.000Z,6.1
2023-02-28T07:39:08.000Z,5.7
2023-02-28T07:40:23.000Z,5.3
2023-02-28T07:41:38.000Z,4.7
2023-02-28T07:42:53.000Z,5
2023-02-28T07:44:09.000Z,4.6
2023-02-28T07:45:25.000Z,4.9
2023-02-28T07:46:41.000Z,4.4
2023-02-28T07:47:57.000Z,4.4
2023-02-28T07:49:14.000Z,3.7
2023-02-28T07:50:30.000Z,4.3
2023-02-28T07:51:46.000Z,4.5
2023-02-28T07:53:02.000Z,4.1
2023-02-28T07:54:19.000Z,4.9
2023-02-28T07:55:35.000Z,6.1
2023-02-28T07:56:51.000Z,5.1
2023-02-28T07:58:07.000Z,6
2023-02-28T07:59:23.000Z,5.4
2023-02-28T08:00:39.000Z,6.3
2023-02-28T08:01:55.000Z,6.3
2023-02-28T08:03:11.000Z,9.4
2023-02-28T08:04:27.000Z,8.4
2023-02-28T08:05:44.000Z,9.2
2023-02-28T08:07:00.000Z,12.5
2023-02-28T08:08:16.000Z,14
2023-02-28T08:09:32.000Z,15.3
2023-02-28T08:10:49.000Z,17.1
2023-02-28T08:12:05.000Z,17.8
2023-02-28T08:13:21.000Z,16.8
2023-02-28T08:14:37.000Z,21.7
2023-02-28T08:15:54.000Z,20.4
2023-02-28T08:17:09.000Z,24.2
2023-02-28T08:18:25.000Z,29.7
2023-02-28T08:19:41.000Z,26.2
2023-02-28T08:20:57.000Z,27.6
2023-02-28T08:22:14.000Z,29
2023-02-28T08:23:30.000Z,27.5
2023-02-28T08:24:46.000Z,30.9
2023-02-28T08:26:02.000Z,30.9
2023-02-28T08:27:19.000Z,32.3
2023-02-28T08:28:35.000Z,30.8
2023-02-28T08:29:51.000Z,29.3
2023-02-28T08:31:07.000Z,30.2
2023-02-28T08:32:24.000Z,28.1
2023-02-28T08:33:39.000Z,28.3
2023-02-28T08:34:55.000Z,27
2023-02-28T08:36:11.000Z,25.9
2023-02-28T08:37:28.000Z,24.3
2023-02-28T08:38:44.000Z,23.9
2023-02-28T08:40:00.000Z,25.9
2023-02-28T08:41:16.000Z,25.1
2023-02-28T08:42:32.000Z,26
2023-02-28T08:43:49.000Z,21.7
2023-02-28T08:45:05.000Z,21.5
2023-02-28T08:46:21.000Z,22.3
2023-02-28T08:47:37.000Z,23.4
2023-02-28T08:48:54.000Z,24.3
2023-02-28T08:50:09.000Z,21.2
2023-02-28T08:51:25.000Z,21
2023-02-28T08:52:41.000Z,20.4
2023-02-28T08:53:58.000Z,20.8
2023-02-28T08:55:14.000Z,19.8
2023-02-28T08:56:30.000Z,20.5
2023-02-28T08:57:46.000Z,20.7
2023-02-28T08:59:03.000Z,20.8
2023-02-28T09:00:19.000Z,19
2023-02-28T09:01:35.000Z,19.1
2023-02-28T09:02:51.000Z,19.9
2023-02-28T09:04:07.000Z,19.9
2023-02-28T09:05:24.000Z,19.7
2023-02-28T09:06:40.000Z,18.6
2023-02-28T09:07:55.000Z,15.4
2023-02-28T09:09:11.000Z,15.8
2023-02-28T09:10:28.000Z,11.3
2023-02-28T09:11:44.000Z,14.8
2023-02-28T09:13:00.000Z,10.7
2023-02-28T09:14:16.000Z,9.9
2023-02-28T09:15:33.000Z,8.9
2023-02-28T09:16:49.000Z,6.7
2023-02-28T09:18:05.000Z,6.7
2023-02-28T09:19:21.000Z,6.8
2023-02-28T09:20:38.000Z,6.4
2023-02-28T09:21:54.000Z,6.5
2023-02-28T09:23:10.000Z,6.1
2023-02-28T09:24:25.000Z,6
2023-02-28T09:25:41.000Z,4.4
2023-02-28T09:26:58.000Z,2.1
2023-02-28T09:28:14.000Z,1.2
2023-02-28T09:29:30.000Z,1
2023-02-28T09:30:46.000Z,1
2023-02-28T09:32:03.000Z,0.9
2023-02-28T09:33:19.000Z,0.9
2023-02-28T09:34:35.000Z,1.1
2023-02-28T09:35:51.000Z,1
2023-02-28T09:37:08.000Z,0.8
2023-02-28T09:38:24.000Z,0.7
2023-02-28T09:39:40.000Z,0.9
2023-02-28T09:40:55.000Z,0.8
2023-02-28T09:42:12.000Z,0.8
2023-02-28T09:43:28.000Z,0.8
2023-02-28T09:44:44.000Z,0.7
2023-02-28T09:46:00.000Z,0.8
2023-02-28T09:47:16.000Z,0.8
2023-02-28T09:48:33.000Z,0.7
2023-02-28T09:49:49.000Z,0.8
2023-02-28T09:51:05.000Z,0.7
2023-02-28T09:52:21.000Z,0.7
2023-02-28T09:53:38.000Z,0.7
2023-02-28T09:54:54.000Z,0.9
2023-02-28T09:56:10.000Z,0.5
2023-02-28T09:57:25.000Z,0.6
2023-02-28T09:58:42.000Z,0.7
2023-02-28T09:59:58.000Z,0.7
2023-02-28T10:01:14.000Z,0.7
2023-02-28T10:02:30.000Z,0.7
2023-02-28T10:03:47.000Z,0.6
2023-02-28T10:05:03.000Z,0.6
2023-02-28T10:06:19.000Z,0.8
2023-02-28T10:07:35.000Z,0.7
2023-02-28T10:08:51.000Z,0.7
2023-02-28T10:10:08.000Z,0.7
2023-02-28T10:11:24.000Z,0.6
2023-02-28T10:12:40.000Z,0.6
2023-02-28T10:13:55.000Z,0.4
2023-02-28T10:15:12.000Z,0.5
2023-02-28T10:16:28.000Z,0.5
2023-02-28T10:17:44.000Z,0.6
2023-02-28T10:19:00.000Z,0.6
2023-02-28T10:20:17.000Z,0.5
2023-02-28T10:21:33.000Z,0.5
2023-02-28T10:22:49.000Z,0.5
2023-02-28T10:24:05.000Z,0.5
2023-02-28T10:25:22.000Z,0.5
2023-02-28T10:26:38.000Z,0.7
2023-02-28T10:27:54.000Z,0.7
2023-02-28T10:29:10.000Z,0.6
2023-02-28T10:30:26.000Z,0.6
2023-02-28T10:31:42.000Z,0.5
2023-02-28T10:32:58.000Z,0.6
2023-02-28T10:34:14.000Z,0.7
2023-02-28T10:35:30.000Z,0.7
2023-02-28T10:36:47.000Z,0.6
2023-02-28T10:38:03.000Z,0.7
2023-02-28T10:39:19.000Z,0.7
2023-02-28T10:40:35.000Z,0.5
2023-02-28T10:41:52.000Z,0.9
2023-02-28T10:43:08.000Z,0.6
2023-02-28T10:44:24.000Z,0.7
2023-02-28T10:45:40.000Z,0.7
2023-02-28T10:46:56.000Z,0.7
2023-02-28T10:48:12.000Z,0.7
2023-02-28T10:49:28.000Z,0.9
2023-02-28T10:50:44.000Z,0.8
2023-02-28T10:52:00.000Z,0.6
2023-02-28T10:53:17.000Z,0.7
2023-02-28T10:54:32.000Z,0.8
2023-02-28T10:55:47.000Z,0.8
2023-02-28T10:57:03.000Z,0.7
2023-02-28T10:58:20.000Z,0.6
2023-02-28T11:00:52.000Z,0.8
2023-02-28T11:02:07.000Z,0.8
2023-02-28T11:03:23.000Z,0.8
2023-02-28T11:04:39.000Z,0.6
2023-02-28T11:05:55.000Z,0.6
2023-02-28T11:07:11.000Z,0.7
2023-02-28T11:08:28.000Z,0.8
2023-02-28T11:09:44.000Z,0.8
2023-02-28T11:11:00.000Z,0.8
2023-02-28T11:12:16.000Z,0.9
2023-02-28T11:13:33.000Z,0.7
2023-02-28T11:14:49.000Z,0.8
2023-02-28T11:16:05.000Z,0.7
2023-02-28T11:17:21.000Z,0.7
2023-02-28T11:18:38.000Z,0.8
2023-02-28T11:19:53.000Z,0.6
2023-02-28T11:21:09.000Z,0.8
2023-02-28T11:22:25.000Z,0.9
2023-02-28T11:23:41.000Z,0.6
2023-02-28T11:24:58.000Z,0.7
2023-02-28T11:26:14.000Z,0.8
2023-02-28T11:27:30.000Z,0.8
2023-02-28T11:28:46.000Z,0.8
2023-02-28T11:30:03.000Z,0.8
2023-02-28T11:31:19.000Z,0.6
2023-02-28T11:32:35.000Z,0.9
2023-02-28T11:33:51.000Z,0.9
2023-02-28T11:35:08.000Z,0.8
2023-02-28T11:37:39.000Z,0.8
2023-02-28T11:38:55.000Z,0.7
2023-02-28T11:40:12.000Z,0.6
2023-02-28T11:41:28.000Z,0.8
2023-02-28T11:42:44.000Z,0.9
2023-02-28T11:44:00.000Z,0.7
2023-02-28T11:45:16.000Z,0.7
2023-02-28T11:46:33.000Z,0.6
2023-02-28T11:47:49.000Z,0.7
2023-02-28T11:49:05.000Z,0.8
2023-02-28T11:50:21.000Z,0.8
2023-02-28T11:51:38.000Z,0.7
2023-02-28T11:52:53.000Z,0.9
2023-02-28T11:54:09.000Z,0.8
2023-02-28T11:55:25.000Z,0.8
2023-02-28T11:56:42.000Z,0.9
2023-02-28T11:57:58.000Z,0.8
2023-02-28T11:59:14.000Z,0.8
2023-02-28T12:00:30.000Z,0.8
2023-02-28T12:01:47.000Z,0.9
2023-02-28T12:03:03.000Z,0.7
2023-02-28T12:04:19.000Z,0.8
2023-02-28T12:05:35.000Z,0.6
2023-02-28T12:06:51.000Z,0.8
2023-02-28T12:08:08.000Z,0.6
2023-02-28T12:09:23.000Z,0.6
2023-02-28T12:10:39.000Z,0.9
2023-02-28T12:11:55.000Z,0.7
2023-02-28T12:13:12.000Z,1
2023-02-28T12:14:28.000Z,0.6
2023-02-28T12:15:44.000Z,1
2023-02-28T12:17:00.000Z,0.7
2023-02-28T12:18:17.000Z,0.7
2023-02-28T12:19:33.000Z,0.9
2023-02-28T12:20:49.000Z,0.8
2023-02-28T12:22:05.000Z,0.8
2023-02-28T12:23:22.000Z,0.7
2023-02-28T12:24:38.000Z,0.8
2023-02-28T12:25:53.000Z,0.7
2023-02-28T12:27:09.000Z,0.9
2023-02-28T12:28:25.000Z,1
2023-02-28T12:29:42.000Z,0.8
2023-02-28T12:30:58.000Z,1.1
2023-02-28T12:32:13.000Z,0.8
2023-02-28T12:33:29.000Z,1.1
2023-02-28T12:34:46.000Z,1
2023-02-28T12:36:02.000Z,1
2023-02-28T12:37:18.000Z,1
2023-02-28T12:38:34.000Z,1.1
2023-02-28T12:39:51.000Z,1
2023-02-28T12:41:07.000Z,1.2
2023-02-28T12:42:23.000Z,1
2023-02-28T12:43:39.000Z,1.1
2023-02-28T12:44:56.000Z,1
2023-02-28T12:46:12.000Z,1.1
2023-02-28T12:47:28.000Z,1
2023-02-28T12:48:43.000Z,1.9
2023-02-28T12:49:59.000Z,1.4
2023-02-28T12:51:16.000Z,1.7
2023-02-28T12:52:32.000Z,1.1
2023-02-28T12:53:48.000Z,0.9
2023-02-28T12:55:04.000Z,1.1
2023-02-28T12:56:21.000Z,0.9
2023-02-28T12:57:37.000Z,1.2
2023-02-28T12:58:53.000Z,1.2
2023-02-28T13:00:09.000Z,1.1
2023-02-28T13:01:26.000Z,1
2023-02-28T13:02:42.000Z,0.9
2023-02-28T13:03:58.000Z,1
2023-02-28T13:05:13.000Z,1
2023-02-28T13:06:30.000Z,1
2023-02-28T13:07:46.000Z,1
2023-02-28T13:09:02.000Z,0.9
2023-02-28T13:10:18.000Z,1.1
2023-02-28T13:11:34.000Z,1
2023-02-28T13:12:51.000Z,1.1
2023-02-28T13:14:07.000Z,0.9
2023-02-28T13:15:23.000Z,1
2023-02-28T13:16:39.000Z,1
2023-02-28T13:17:56.000Z,1
2023-02-28T13:19:12.000Z,1
2023-02-28T13:20:28.000Z,1
2023-02-28T13:21:43.000Z,0.9
2023-02-28T13:23:00.000Z,1.2
2023-02-28T13:24:16.000Z,0.9
2023-02-28T13:25:32.000Z,1.1
2023-02-28T13:26:48.000Z,1.1
2023-02-28T13:28:05.000Z,1
2023-02-28T13:29:21.000Z,1
2023-02-28T13:30:37.000Z,1
2023-02-28T13:31:53.000Z,0.9
2023-02-28T13:33:09.000Z,0.9
2023-02-28T13:34:25.000Z,1
2023-02-28T13:35:40.000Z,0.9
2023-02-28T13:36:55.000Z,0.9
2023-02-28T13:38:10.000Z,0.9
2023-02-28T13:39:27.000Z,1
2023-02-28T13:40:43.000Z,1
2023-02-28T13:41:59.000Z,1
2023-02-28T13:43:15.000Z,1.2
2023-02-28T13:44:32.000Z,1.3
2023-02-28T13:45:48.000Z,1.1
2023-02-28T13:47:04.000Z,1.3
2023-02-28T13:48:20.000Z,1
2023-02-28T13:49:37.000Z,1.1
2023-02-28T13:50:53.000Z,0.9
2023-02-28T13:52:09.000Z,1
2023-02-28T13:53:25.000Z,1
2023-02-28T13:54:41.000Z,1.2
2023-02-28T13:55:57.000Z,1.1
2023-02-28T13:57:13.000Z,1.1
2023-02-28T13:58:29.000Z,1
2023-02-28T13:59:45.000Z,1.1
2023-02-28T14:01:02.000Z,1.2
2023-02-28T14:02:18.000Z,0.9
2023-02-28T14:03:34.000Z,1.1
2023-02-28T14:04:50.000Z,1.2
2023-02-28T14:06:07.000Z,0.9
2023-02-28T14:07:23.000Z,1
2023-02-28T14:08:39.000Z,1.1
2023-02-28T14:09:55.000Z,1.1
2023-02-28T14:11:11.000Z,1.2
2023-02-28T14:12:27.000Z,0.9
2023-02-28T14:13:43.000Z,1.2
2023-02-28T14:14:59.000Z,1.1
2023-02-28T14:16:16.000Z,0.9
2023-02-28T14:17:32.000Z,1.1
2023-02-28T14:18:48.000Z,0.9
2023-02-28T14:20:04.000Z,1.3
2023-02-28T14:21:20.000Z,1.3
2023-02-28T14:22:37.000Z,3
2023-02-28T14:23:53.000Z,1.1
2023-02-28T14:25:09.000Z,1
2023-02-28T14:26:25.000Z,1.3
2023-02-28T14:27:41.000Z,1.2
2023-02-28T14:28:57.000Z,1
2023-02-28T14:30:13.000Z,1.3
2023-02-28T14:31:29.000Z,1.2
2023-02-28T14:32:46.000Z,1.5
2023-02-28T14:34:02.000Z,1.3
2023-02-28T14:35:18.000Z,1.2
2023-02-28T14:36:34.000Z,1.2
2023-02-28T14:37:51.000Z,1.2
2023-02-28T14:39:07.000Z,1.3
2023-02-28T14:40:23.000Z,1.3
2023-02-28T14:41:39.000Z,1.1
2023-02-28T14:42:55.000Z,1.3
2023-02-28T14:44:11.000Z,1.2
2023-02-28T14:45:27.000Z,1.3
2023-02-28T14:46:43.000Z,1.3
2023-02-28T14:47:59.000Z,2.2
2023-02-28T14:49:16.000Z,1.6
2023-02-28T14:50:32.000Z,1.3
2023-02-28T14:51:48.000Z,1.1
2023-02-28T14:53:04.000Z,1.6
2023-02-28T14:54:20.000Z,1.3
2023-02-28T14:55:35.000Z,1.2
2023-02-28T14:56:51.000Z,1.3
2023-02-28T14:58:06.000Z,1.3
2023-02-28T14:59:22.000Z,1.3
2023-02-28T15:00:38.000Z,1.3
2023-02-28T15:01:54.000Z,1.2
2023-02-28T15:03:10.000Z,1.2
2023-02-28T15:04:27.000Z,1.4
2023-02-28T15:05:43.000Z,1.5
2023-02-28T15:06:59.000Z,1.2
2023-02-28T15:08:15.000Z,1.3
2023-02-28T15:09:32.000Z,1.4
2023-02-28T15:10:48.000Z,1.4
2023-02-28T15:12:04.000Z,1.4
2023-02-28T15:13:20.000Z,1.3
2023-02-28T15:14:36.000Z,1.3
2023-02-28T15:15:52.000Z,1.4
2023-02-28T15:17:08.000Z,1.3
2023-02-28T15:18:24.000Z,1.3
2023-02-28T15:19:40.000Z,1
2023-02-28T15:20:57.000Z,1.2
2023-02-28T15:22:13.000Z,1.5
2023-02-28T15:23:29.000Z,2.4
2023-02-28T15:24:45.000Z,2.5
2023-02-28T15:26:02.000Z,1.7
2023-02-28T15:27:18.000Z,3.1
2023-02-28T15:28:34.000Z,1.2
2023-02-28T15:29:50.000Z,1.1
2023-02-28T15:31:06.000Z,1.4
2023-02-28T15:32:22.000Z,1.2
2023-02-28T15:33:38.000Z,1.3
2023-02-28T15:34:54.000Z,1.3
2023-02-28T15:36:10.000Z,1.3
2023-02-28T15:37:27.000Z,1.1
2023-02-28T15:38:43.000Z,1.3
2023-02-28T15:39:59.000Z,1.2
2023-02-28T15:41:15.000Z,2.4
2023-02-28T15:42:32.000Z,1.7
2023-02-28T15:43:48.000Z,1.2
2023-02-28T15:45:04.000Z,1.2
2023-02-28T15:46:20.000Z,1.4
2023-02-28T15:47:37.000Z,1.3
2023-02-28T15:48:52.000Z,1.7
2023-02-28T15:50:08.000Z,4.2
2023-02-28T15:51:24.000Z,1.8
2023-02-28T15:52:41.000Z,3.5
2023-02-28T15:53:57.000Z,1.6
2023-02-28T15:55:13.000Z,1.5
2023-02-28T15:56:29.000Z,1.6
2023-02-28T15:57:45.000Z,2.4
2023-02-28T15:59:02.000Z,1.9
2023-02-28T16:00:18.000Z,1.4
2023-02-28T16:01:34.000Z,1.2
2023-02-28T16:02:50.000Z,1.1
2023-02-28T16:04:07.000Z,1.1
2023-02-28T16:05:22.000Z,1.2
2023-02-28T16:06:38.000Z,1.2
2023-02-28T16:07:54.000Z,1.3
2023-02-28T16:09:11.000Z,1.5
2023-02-28T16:10:27.000Z,2.4
2023-02-28T16:11:43.000Z,2.4
2023-02-28T16:12:59.000Z,2.1
2023-02-28T16:14:15.000Z,1.5
2023-02-28T16:15:32.000Z,1.3
2023-02-28T16:16:48.000Z,1.5
2023-02-28T16:18:04.000Z,1.6
2023-02-28T16:19:20.000Z,1.4
2023-02-28T16:20:37.000Z,1.4
2023-02-28T16:21:52.000Z,1.6
2023-02-28T16:23:08.000Z,1.4
2023-02-28T16:24:24.000Z,1.3
2023-02-28T16:25:41.000Z,1.3
2023-02-28T16:26:57.000Z,1.2
2023-02-28T16:28:13.000Z,1.3
2023-02-28T16:29:29.000Z,1.5
2023-02-28T16:30:46.000Z,1.2
2023-02-28T16:32:02.000Z,1.1
2023-02-28T16:33:18.526Z,1.2
2023-02-28T16:34:34.000Z,0.9
2023-02-28T16:35:50.000Z,1.3
2023-02-28T16:37:07.000Z,1.3
2023-02-28T16:38:22.000Z,1.3
2023-02-28T16:39:38.000Z,1.2
2023-02-28T16:40:54.000Z,1.3
2023-02-28T16:42:11.000Z,1.2
2023-02-28T16:43:27.000Z,1.6
2023-02-28T16:44:43.000Z,1.4
2023-02-28T16:45:59.000Z,1.3
2023-02-28T16:47:15.000Z,1.5
2023-02-28T16:48:31.000Z,1.2
2023-02-28T16:49:47.000Z,1.3
2023-02-28T16:51:03.000Z,1.5
2023-02-28T16:52:20.000Z,1.4
2023-02-28T16:53:36.000Z,1.4
2023-02-28T16:54:52.000Z,1.5
2023-02-28T16:56:08.000Z,1.5
2023-02-28T16:57:25.000Z,1.6
2023-02-28T16:58:41.000Z,1.5
2023-02-28T16:59:57.000Z,2
2023-02-28T17:01:13.000Z,1.9
2023-02-28T17:02:29.000Z,2
2023-02-28T17:03:45.000Z,1.9
2023-02-28T17:05:01.000Z,1.6
2023-02-28T17:06:17.000Z,1.7
2023-02-28T17:07:33.000Z,1.5
2023-02-28T17:10:06.000Z,1.7
2023-02-28T17:11:22.000Z,2
2023-02-28T17:12:38.000Z,1.6
2023-02-28T17:13:55.000Z,1.4
2023-02-28T17:15:11.000Z,1.8
2023-02-28T17:16:27.000Z,1.7
2023-02-28T17:17:43.000Z,1.8
2023-02-28T17:19:00.000Z,2
2023-02-28T17:20:15.000Z,2.1
2023-02-28T17:21:31.000Z,2.4
2023-02-28T17:22:47.000Z,2.5
2023-02-28T17:24:03.000Z,1.9
2023-02-28T17:25:20.000Z,3
2023-02-28T17:26:36.000Z,2.3
2023-02-28T17:27:52.000Z,1.7
2023-02-28T17:29:08.000Z,1.7
2023-02-28T17:30:25.000Z,1.8
2023-02-28T17:31:41.000Z,2
2023-02-28T17:32:57.000Z,2.1
2023-02-28T17:34:13.000Z,1.9
2023-02-28T17:35:30.000Z,1.8
2023-02-28T17:36:45.000Z,1.8